sensor_id;sensor_type;location;lat;lon;timestamp;temperature;humidity
40253;DHT22;25972;51.854;4.534;2023-05-10T00:01:13;12.60;99.90
40253;DHT22;25972;51.854;4.534;2023-05-10T00:03:39;12.70;99.90
40253;DHT22;25972;51.854;4.534;2023-05-10T00:06:05;12.50;99.90
40253;DHT22;25972;51.854;4.534;2023-05-10T00:08:32;12.60;99.90
40253;DHT22;25972;51.854;4.534;2023-05-10T00:10:58;12.70;99.90
40253;DHT22;25972;51.854;4.534;2023-05-10T00:13:24;12.50;99.90
40253;DHT22;25972;51.854;4.534;2023-05-10T00:15:50;12.70;99.90
40253;DHT22;25972;51.854;4.534;2023-05-10T00:18:16;12.50;99.90
40253;DHT22;25972;51.854;4.534;2023-05-10T00:20:41;12.60;99.90
40253;DHT22;25972;51.854;4.534;2023-05-10T00:23:07;12.60;99.90
40253;DHT22;25972;51.854;4.534;2023-05-10T00:25:33;12.70;99.90
40253;DHT22;25972;51.854;4.534;2023-05-10T00:28:00;12.50;99.90
40253;DHT22;25972;51.854;4.534;2023-05-10T00:30:27;12.70;99.90
40253;DHT22;25972;51.854;4.534;2023-05-10T00:32:54;12.70;99.90
40253;DHT22;25972;51.854;4.534;2023-05-10T00:35:20;12.70;99.90
40253;DHT22;25972;51.854;4.534;2023-05-10T00:37:47;12.50;99.90
40253;DHT22;25972;51.854;4.534;2023-05-10T00:40:14;12.70;99.90
40253;DHT22;25972;51.854;4.534;2023-05-10T00:42:42;12.70;99.90
40253;DHT22;25972;51.854;4.534;2023-05-10T00:45:08;12.70;99.90
40253;DHT22;25972;51.854;4.534;2023-05-10T00:47:35;12.60;99.90
40253;DHT22;25972;51.854;4.534;2023-05-10T00:50:02;12.70;99.90
40253;DHT22;25972;51.854;4.534;2023-05-10T00:52:29;12.70;99.90
40253;DHT22;25972;51.854;4.534;2023-05-10T00:54:56;12.60;99.90
40253;DHT22;25972;51.854;4.534;2023-05-10T00:57:23;12.50;99.90
40253;DHT22;25972;51.854;4.534;2023-05-10T00:59:49;12.50;99.90
40253;DHT22;25972;51.854;4.534;2023-05-10T01:02:15;12.60;99.90
40253;DHT22;25972;51.854;4.534;2023-05-10T01:04:41;12.70;99.90
40253;DHT22;25972;51.854;4.534;2023-05-10T01:07:07;12.50;99.90
40253;DHT22;25972;51.854;4.534;2023-05-10T01:09:33;12.50;99.90
40253;DHT22;25972;51.854;4.534;2023-05-10T01:12:00;12.70;99.90
40253;DHT22;25972;51.854;4.534;2023-05-10T01:14:28;12.50;99.90
40253;DHT22;25972;51.854;4.534;2023-05-10T01:16:57;12.50;99.90
40253;DHT22;25972;51.854;4.534;2023-05-10T01:19:25;12.60;99.90
40253;DHT22;25972;51.854;4.534;2023-05-10T01:22:03;12.60;99.90
40253;DHT22;25972;51.854;4.534;2023-05-10T01:30:23;12.60;99.90
40253;DHT22;25972;51.854;4.534;2023-05-10T01:37:20;12.60;99.90
40253;DHT22;25972;51.854;4.534;2023-05-10T01:40:08;12.60;99.90
40253;DHT22;25972;51.854;4.534;2023-05-10T01:42:46;12.80;99.90
40253;DHT22;25972;51.854;4.534;2023-05-10T01:47:43;12.80;99.90
40253;DHT22;25972;51.854;4.534;2023-05-10T01:50:17;12.70;99.90
40253;DHT22;25972;51.854;4.534;2023-05-10T01:52:49;12.70;99.90
40253;DHT22;25972;51.854;4.534;2023-05-10T01:55:20;12.90;99.90
40253;DHT22;25972;51.854;4.534;2023-05-10T01:57:49;12.90;99.90
40253;DHT22;25972;51.854;4.534;2023-05-10T02:00:18;12.70;99.90
40253;DHT22;25972;51.854;4.534;2023-05-10T02:02:48;12.80;99.90
40253;DHT22;25972;51.854;4.534;2023-05-10T02:05:16;12.80;99.90
40253;DHT22;25972;51.854;4.534;2023-05-10T02:07:43;13.00;99.90
40253;DHT22;25972;51.854;4.534;2023-05-10T02:10:10;12.90;99.90
40253;DHT22;25972;51.854;4.534;2023-05-10T02:12:41;12.90;99.90
40253;DHT22;25972;51.854;4.534;2023-05-10T02:15:09;12.80;99.90
40253;DHT22;25972;51.854;4.534;2023-05-10T02:17:37;12.90;99.90
40253;DHT22;25972;51.854;4.534;2023-05-10T02:20:06;12.80;99.90
40253;DHT22;25972;51.854;4.534;2023-05-10T02:22:35;13.00;99.90
40253;DHT22;25972;51.854;4.534;2023-05-10T02:25:02;12.90;99.90
40253;DHT22;25972;51.854;4.534;2023-05-10T02:27:29;13.00;99.90
40253;DHT22;25972;51.854;4.534;2023-05-10T02:29:56;12.90;99.90
40253;DHT22;25972;51.854;4.534;2023-05-10T02:32:26;13.00;99.90
40253;DHT22;25972;51.854;4.534;2023-05-10T02:34:52;13.00;99.90
40253;DHT22;25972;51.854;4.534;2023-05-10T02:37:20;12.90;99.90
40253;DHT22;25972;51.854;4.534;2023-05-10T02:39:50;12.90;99.90
40253;DHT22;25972;51.854;4.534;2023-05-10T02:42:25;13.00;99.90
40253;DHT22;25972;51.854;4.534;2023-05-10T02:44:56;12.90;99.90
40253;DHT22;25972;51.854;4.534;2023-05-10T02:47:22;13.00;99.90
40253;DHT22;25972;51.854;4.534;2023-05-10T02:49:48;13.00;99.90
40253;DHT22;25972;51.854;4.534;2023-05-10T02:52:19;12.90;99.90
40253;DHT22;25972;51.854;4.534;2023-05-10T02:54:50;13.00;99.90
40253;DHT22;25972;51.854;4.534;2023-05-10T02:57:25;12.90;99.90
40253;DHT22;25972;51.854;4.534;2023-05-10T02:59:52;13.00;99.90
40253;DHT22;25972;51.854;4.534;2023-05-10T03:02:17;13.00;99.90
40253;DHT22;25972;51.854;4.534;2023-05-10T03:04:44;12.90;99.90
40253;DHT22;25972;51.854;4.534;2023-05-10T03:07:10;12.90;99.90
40253;DHT22;25972;51.854;4.534;2023-05-10T03:09:36;13.00;99.90
40253;DHT22;25972;51.854;4.534;2023-05-10T03:14:57;12.80;99.90
40253;DHT22;25972;51.854;4.534;2023-05-10T03:20:29;12.90;99.90
40253;DHT22;25972;51.854;4.534;2023-05-10T03:23:30;13.00;99.90
40253;DHT22;25972;51.854;4.534;2023-05-10T03:26:01;12.90;99.90
40253;DHT22;25972;51.854;4.534;2023-05-10T03:28:27;12.90;99.90
40253;DHT22;25972;51.854;4.534;2023-05-10T03:30:54;13.00;99.90
40253;DHT22;25972;51.854;4.534;2023-05-10T03:33:20;13.00;99.90
40253;DHT22;25972;51.854;4.534;2023-05-10T03:35:46;12.80;99.90
40253;DHT22;25972;51.854;4.534;2023-05-10T03:38:13;12.90;99.90
40253;DHT22;25972;51.854;4.534;2023-05-10T03:40:39;12.90;99.90
40253;DHT22;25972;51.854;4.534;2023-05-10T03:43:06;13.00;99.90
40253;DHT22;25972;51.854;4.534;2023-05-10T03:45:32;12.90;99.90
40253;DHT22;25972;51.854;4.534;2023-05-10T03:48:00;12.90;99.90
40253;DHT22;25972;51.854;4.534;2023-05-10T03:50:25;12.90;99.90
40253;DHT22;25972;51.854;4.534;2023-05-10T03:52:53;12.80;99.90
40253;DHT22;25972;51.854;4.534;2023-05-10T03:55:19;12.80;99.90
40253;DHT22;25972;51.854;4.534;2023-05-10T03:57:45;12.90;99.90
40253;DHT22;25972;51.854;4.534;2023-05-10T04:00:12;12.90;99.90
40253;DHT22;25972;51.854;4.534;2023-05-10T04:02:41;12.90;99.90
40253;DHT22;25972;51.854;4.534;2023-05-10T04:05:10;12.80;99.90
40253;DHT22;25972;51.854;4.534;2023-05-10T04:07:36;12.90;99.90
40253;DHT22;25972;51.854;4.534;2023-05-10T04:10:03;12.80;99.90
40253;DHT22;25972;51.854;4.534;2023-05-10T04:12:29;12.80;99.90
40253;DHT22;25972;51.854;4.534;2023-05-10T04:14:55;12.70;99.90
40253;DHT22;25972;51.854;4.534;2023-05-10T04:17:21;12.80;99.90
40253;DHT22;25972;51.854;4.534;2023-05-10T04:19:47;12.80;99.90
40253;DHT22;25972;51.854;4.534;2023-05-10T04:22:13;12.90;99.90
40253;DHT22;25972;51.854;4.534;2023-05-10T04:24:40;12.70;99.90
40253;DHT22;25972;51.854;4.534;2023-05-10T04:27:06;12.80;99.90
40253;DHT22;25972;51.854;4.534;2023-05-10T04:29:32;12.80;99.90
40253;DHT22;25972;51.854;4.534;2023-05-10T04:31:59;12.80;99.90
40253;DHT22;25972;51.854;4.534;2023-05-10T04:34:25;12.80;99.90
40253;DHT22;25972;51.854;4.534;2023-05-10T04:36:51;12.90;99.90
40253;DHT22;25972;51.854;4.534;2023-05-10T04:39:17;12.70;99.90
40253;DHT22;25972;51.854;4.534;2023-05-10T04:41:43;12.90;99.90
40253;DHT22;25972;51.854;4.534;2023-05-10T04:44:09;12.80;99.90
40253;DHT22;25972;51.854;4.534;2023-05-10T04:46:36;12.70;99.90
40253;DHT22;25972;51.854;4.534;2023-05-10T04:49:02;12.80;99.90
40253;DHT22;25972;51.854;4.534;2023-05-10T04:51:28;12.80;99.90
40253;DHT22;25972;51.854;4.534;2023-05-10T04:53:55;12.80;99.90
40253;DHT22;25972;51.854;4.534;2023-05-10T04:56:21;12.70;99.90
40253;DHT22;25972;51.854;4.534;2023-05-10T04:58:48;12.80;99.90
40253;DHT22;25972;51.854;4.534;2023-05-10T05:01:15;12.70;99.90
40253;DHT22;25972;51.854;4.534;2023-05-10T05:03:41;12.70;99.90
40253;DHT22;25972;51.854;4.534;2023-05-10T05:06:08;12.80;99.90
40253;DHT22;25972;51.854;4.534;2023-05-10T05:08:34;12.80;99.90
40253;DHT22;25972;51.854;4.534;2023-05-10T05:11:00;12.80;99.90
40253;DHT22;25972;51.854;4.534;2023-05-10T05:13:26;12.70;99.90
40253;DHT22;25972;51.854;4.534;2023-05-10T05:15:52;12.70;99.90
40253;DHT22;25972;51.854;4.534;2023-05-10T05:18:19;12.70;99.90
40253;DHT22;25972;51.854;4.534;2023-05-10T05:20:45;12.70;99.90
40253;DHT22;25972;51.854;4.534;2023-05-10T05:23:11;12.70;99.90
40253;DHT22;25972;51.854;4.534;2023-05-10T05:25:37;12.60;99.90
40253;DHT22;25972;51.854;4.534;2023-05-10T05:28:03;12.70;99.90
40253;DHT22;25972;51.854;4.534;2023-05-10T05:30:30;12.50;99.90
40253;DHT22;25972;51.854;4.534;2023-05-10T05:32:56;12.50;99.90
40253;DHT22;25972;51.854;4.534;2023-05-10T05:35:22;12.60;99.90
40253;DHT22;25972;51.854;4.534;2023-05-10T05:37:48;12.70;99.90
40253;DHT22;25972;51.854;4.534;2023-05-10T05:40:15;12.60;99.90
40253;DHT22;25972;51.854;4.534;2023-05-10T05:42:41;12.70;99.90
40253;DHT22;25972;51.854;4.534;2023-05-10T05:45:08;12.60;99.90
40253;DHT22;25972;51.854;4.534;2023-05-10T05:47:34;12.60;99.90
40253;DHT22;25972;51.854;4.534;2023-05-10T05:50:00;12.60;99.90
40253;DHT22;25972;51.854;4.534;2023-05-10T05:52:27;12.50;99.90
40253;DHT22;25972;51.854;4.534;2023-05-10T05:54:53;12.70;99.90
40253;DHT22;25972;51.854;4.534;2023-05-10T05:57:19;12.60;99.90
40253;DHT22;25972;51.854;4.534;2023-05-10T05:59:45;12.70;99.90
40253;DHT22;25972;51.854;4.534;2023-05-10T06:02:11;12.80;99.90
40253;DHT22;25972;51.854;4.534;2023-05-10T06:04:38;12.80;99.90
40253;DHT22;25972;51.854;4.534;2023-05-10T06:07:04;12.90;99.90
40253;DHT22;25972;51.854;4.534;2023-05-10T06:09:30;12.90;99.90
40253;DHT22;25972;51.854;4.534;2023-05-10T06:11:57;12.90;99.90
40253;DHT22;25972;51.854;4.534;2023-05-10T06:14:23;13.00;99.90
40253;DHT22;25972;51.854;4.534;2023-05-10T06:16:49;12.80;99.90
40253;DHT22;25972;51.854;4.534;2023-05-10T06:19:16;12.90;99.90
40253;DHT22;25972;51.854;4.534;2023-05-10T06:21:43;12.90;99.90
40253;DHT22;25972;51.854;4.534;2023-05-10T06:24:09;13.00;99.90
40253;DHT22;25972;51.854;4.534;2023-05-10T06:26:35;13.00;99.90
40253;DHT22;25972;51.854;4.534;2023-05-10T06:29:02;13.00;99.90
40253;DHT22;25972;51.854;4.534;2023-05-10T06:31:28;12.90;99.90
40253;DHT22;25972;51.854;4.534;2023-05-10T06:33:54;13.00;99.90
40253;DHT22;25972;51.854;4.534;2023-05-10T06:36:21;13.00;99.90
40253;DHT22;25972;51.854;4.534;2023-05-10T06:38:47;12.90;99.90
40253;DHT22;25972;51.854;4.534;2023-05-10T06:41:14;12.90;99.90
40253;DHT22;25972;51.854;4.534;2023-05-10T06:43:42;13.10;99.90
40253;DHT22;25972;51.854;4.534;2023-05-10T06:46:08;13.00;99.90
40253;DHT22;25972;51.854;4.534;2023-05-10T06:48:34;13.10;99.90
40253;DHT22;25972;51.854;4.534;2023-05-10T06:51:00;13.00;99.90
40253;DHT22;25972;51.854;4.534;2023-05-10T06:53:26;13.10;99.90
40253;DHT22;25972;51.854;4.534;2023-05-10T06:55:53;13.00;99.90
40253;DHT22;25972;51.854;4.534;2023-05-10T06:58:19;13.00;99.90
40253;DHT22;25972;51.854;4.534;2023-05-10T07:00:45;13.10;99.90
40253;DHT22;25972;51.854;4.534;2023-05-10T07:03:16;13.10;99.90
40253;DHT22;25972;51.854;4.534;2023-05-10T07:05:42;13.10;99.90
40253;DHT22;25972;51.854;4.534;2023-05-10T07:08:08;13.10;99.90
40253;DHT22;25972;51.854;4.534;2023-05-10T07:10:34;13.10;99.90
40253;DHT22;25972;51.854;4.534;2023-05-10T07:13:00;13.20;99.90
40253;DHT22;25972;51.854;4.534;2023-05-10T07:15:27;13.20;99.90
40253;DHT22;25972;51.854;4.534;2023-05-10T07:17:55;13.20;99.90
40253;DHT22;25972;51.854;4.534;2023-05-10T07:20:21;13.30;99.90
40253;DHT22;25972;51.854;4.534;2023-05-10T07:22:47;13.40;99.90
40253;DHT22;25972;51.854;4.534;2023-05-10T07:25:13;13.40;99.90
40253;DHT22;25972;51.854;4.534;2023-05-10T07:27:40;13.40;99.90
40253;DHT22;25972;51.854;4.534;2023-05-10T07:30:06;13.60;99.90
40253;DHT22;25972;51.854;4.534;2023-05-10T07:32:32;13.60;99.90
40253;DHT22;25972;51.854;4.534;2023-05-10T07:34:58;13.60;99.90
40253;DHT22;25972;51.854;4.534;2023-05-10T07:37:24;13.60;99.90
40253;DHT22;25972;51.854;4.534;2023-05-10T07:39:50;13.70;99.90
40253;DHT22;25972;51.854;4.534;2023-05-10T07:42:16;13.70;99.90
40253;DHT22;25972;51.854;4.534;2023-05-10T07:44:42;13.80;99.90
40253;DHT22;25972;51.854;4.534;2023-05-10T07:47:08;13.80;99.90
40253;DHT22;25972;51.854;4.534;2023-05-10T07:49:35;13.90;99.90
40253;DHT22;25972;51.854;4.534;2023-05-10T07:52:03;13.90;99.90
40253;DHT22;25972;51.854;4.534;2023-05-10T07:54:29;13.90;99.90
40253;DHT22;25972;51.854;4.534;2023-05-10T07:56:54;14.00;99.90
40253;DHT22;25972;51.854;4.534;2023-05-10T07:59:20;14.00;99.90
40253;DHT22;25972;51.854;4.534;2023-05-10T08:01:46;13.90;99.90
40253;DHT22;25972;51.854;4.534;2023-05-10T08:04:12;13.90;99.90
40253;DHT22;25972;51.854;4.534;2023-05-10T08:06:39;14.00;99.90
40253;DHT22;25972;51.854;4.534;2023-05-10T08:09:05;14.00;99.90
40253;DHT22;25972;51.854;4.534;2023-05-10T08:11:31;14.00;99.90
40253;DHT22;25972;51.854;4.534;2023-05-10T08:13:59;13.90;99.90
40253;DHT22;25972;51.854;4.534;2023-05-10T08:16:25;13.80;99.90
40253;DHT22;25972;51.854;4.534;2023-05-10T08:18:51;13.80;99.90
40253;DHT22;25972;51.854;4.534;2023-05-10T08:21:17;13.90;99.90
40253;DHT22;25972;51.854;4.534;2023-05-10T08:23:43;13.80;99.90
40253;DHT22;25972;51.854;4.534;2023-05-10T08:26:09;13.80;99.90
40253;DHT22;25972;51.854;4.534;2023-05-10T08:28:36;13.80;99.90
40253;DHT22;25972;51.854;4.534;2023-05-10T08:31:02;13.80;99.90
40253;DHT22;25972;51.854;4.534;2023-05-10T08:33:28;13.80;99.90
40253;DHT22;25972;51.854;4.534;2023-05-10T08:35:54;13.80;99.90
40253;DHT22;25972;51.854;4.534;2023-05-10T08:38:20;13.70;99.90
40253;DHT22;25972;51.854;4.534;2023-05-10T08:40:47;13.70;99.90
40253;DHT22;25972;51.854;4.534;2023-05-10T08:43:14;13.70;99.90
40253;DHT22;25972;51.854;4.534;2023-05-10T08:45:44;13.70;99.90
40253;DHT22;25972;51.854;4.534;2023-05-10T08:48:12;13.60;99.90
40253;DHT22;25972;51.854;4.534;2023-05-10T08:50:41;13.60;99.90
40253;DHT22;25972;51.854;4.534;2023-05-10T08:53:12;13.60;99.90
40253;DHT22;25972;51.854;4.534;2023-05-10T08:55:40;13.60;99.90
40253;DHT22;25972;51.854;4.534;2023-05-10T08:58:08;13.60;99.90
40253;DHT22;25972;51.854;4.534;2023-05-10T09:00:35;13.60;99.90
40253;DHT22;25972;51.854;4.534;2023-05-10T09:03:04;13.70;99.90
40253;DHT22;25972;51.854;4.534;2023-05-10T09:05:31;13.70;99.90
40253;DHT22;25972;51.854;4.534;2023-05-10T09:07:58;13.70;99.90
40253;DHT22;25972;51.854;4.534;2023-05-10T09:10:26;13.80;99.90
40253;DHT22;25972;51.854;4.534;2023-05-10T09:12:55;13.80;99.90
40253;DHT22;25972;51.854;4.534;2023-05-10T09:15:22;13.90;99.90
40253;DHT22;25972;51.854;4.534;2023-05-10T09:17:49;14.00;99.90
40253;DHT22;25972;51.854;4.534;2023-05-10T09:20:15;14.00;99.90
40253;DHT22;25972;51.854;4.534;2023-05-10T09:22:43;14.10;99.90
40253;DHT22;25972;51.854;4.534;2023-05-10T09:25:14;14.20;99.90
40253;DHT22;25972;51.854;4.534;2023-05-10T09:27:44;14.30;99.90
40253;DHT22;25972;51.854;4.534;2023-05-10T09:30:17;14.30;99.90
40253;DHT22;25972;51.854;4.534;2023-05-10T09:32:50;14.40;99.90
40253;DHT22;25972;51.854;4.534;2023-05-10T09:35:18;14.40;99.90
40253;DHT22;25972;51.854;4.534;2023-05-10T09:37:49;14.50;99.90
40253;DHT22;25972;51.854;4.534;2023-05-10T09:40:21;14.50;99.90
40253;DHT22;25972;51.854;4.534;2023-05-10T09:42:52;14.50;99.90
40253;DHT22;25972;51.854;4.534;2023-05-10T09:45:20;14.60;99.90
40253;DHT22;25972;51.854;4.534;2023-05-10T09:47:45;14.60;99.90
40253;DHT22;25972;51.854;4.534;2023-05-10T09:50:11;14.70;99.90
40253;DHT22;25972;51.854;4.534;2023-05-10T09:53:10;14.70;99.90
40253;DHT22;25972;51.854;4.534;2023-05-10T09:55:44;14.70;99.90
40253;DHT22;25972;51.854;4.534;2023-05-10T09:58:12;14.70;99.90
40253;DHT22;25972;51.854;4.534;2023-05-10T10:00:39;14.70;99.90
40253;DHT22;25972;51.854;4.534;2023-05-10T10:03:06;14.70;99.90
40253;DHT22;25972;51.854;4.534;2023-05-10T10:05:40;14.60;99.90
40253;DHT22;25972;51.854;4.534;2023-05-10T10:08:08;14.60;99.90
40253;DHT22;25972;51.854;4.534;2023-05-10T10:10:34;14.60;99.90
40253;DHT22;25972;51.854;4.534;2023-05-10T10:13:02;14.50;99.90
40253;DHT22;25972;51.854;4.534;2023-05-10T10:15:28;14.50;99.90
40253;DHT22;25972;51.854;4.534;2023-05-10T10:17:54;14.30;99.90
40253;DHT22;25972;51.854;4.534;2023-05-10T10:20:21;14.30;99.90
40253;DHT22;25972;51.854;4.534;2023-05-10T10:22:48;14.20;99.90
40253;DHT22;25972;51.854;4.534;2023-05-10T10:25:16;14.10;99.90
40253;DHT22;25972;51.854;4.534;2023-05-10T10:36:00;13.90;99.90
40253;DHT22;25972;51.854;4.534;2023-05-10T10:38:37;13.80;99.90
40253;DHT22;25972;51.854;4.534;2023-05-10T10:41:11;13.70;99.90
40253;DHT22;25972;51.854;4.534;2023-05-10T10:52:25;13.80;99.90
40253;DHT22;25972;51.854;4.534;2023-05-10T10:57:27;13.70;99.90
40253;DHT22;25972;51.854;4.534;2023-05-10T11:03:13;13.80;99.90
40253;DHT22;25972;51.854;4.534;2023-05-10T11:05:48;13.80;99.90
40253;DHT22;25972;51.854;4.534;2023-05-10T11:08:34;13.90;99.90
40253;DHT22;25972;51.854;4.534;2023-05-10T11:11:07;13.80;99.90
40253;DHT22;25972;51.854;4.534;2023-05-10T11:13:37;13.90;99.90
40253;DHT22;25972;51.854;4.534;2023-05-10T11:16:21;13.90;99.90
40253;DHT22;25972;51.854;4.534;2023-05-10T11:21:22;14.00;99.90
40253;DHT22;25972;51.854;4.534;2023-05-10T11:23:58;14.00;99.90
40253;DHT22;25972;51.854;4.534;2023-05-10T11:26:30;14.10;99.90
40253;DHT22;25972;51.854;4.534;2023-05-10T11:28:56;14.30;99.90
40253;DHT22;25972;51.854;4.534;2023-05-10T11:31:23;14.20;99.90
40253;DHT22;25972;51.854;4.534;2023-05-10T11:33:50;14.30;99.90
40253;DHT22;25972;51.854;4.534;2023-05-10T11:36:25;14.40;99.90
40253;DHT22;25972;51.854;4.534;2023-05-10T11:38:53;14.50;99.90
40253;DHT22;25972;51.854;4.534;2023-05-10T11:41:20;14.50;99.90
40253;DHT22;25972;51.854;4.534;2023-05-10T11:43:53;14.60;99.90
40253;DHT22;25972;51.854;4.534;2023-05-10T11:46:20;14.60;99.90
40253;DHT22;25972;51.854;4.534;2023-05-10T11:48:51;14.80;99.90
40253;DHT22;25972;51.854;4.534;2023-05-10T11:51:22;14.80;99.90
40253;DHT22;25972;51.854;4.534;2023-05-10T11:53:49;14.80;99.90
40253;DHT22;25972;51.854;4.534;2023-05-10T11:56:16;14.90;99.90
40253;DHT22;25972;51.854;4.534;2023-05-10T11:58:41;14.90;99.90
40253;DHT22;25972;51.854;4.534;2023-05-10T12:01:08;15.00;99.90
40253;DHT22;25972;51.854;4.534;2023-05-10T12:03:35;14.90;99.90
40253;DHT22;25972;51.854;4.534;2023-05-10T12:06:02;14.90;99.90
40253;DHT22;25972;51.854;4.534;2023-05-10T12:08:29;15.00;99.90
40253;DHT22;25972;51.854;4.534;2023-05-10T12:11:07;14.90;99.90
40253;DHT22;25972;51.854;4.534;2023-05-10T12:13:38;15.00;99.90
40253;DHT22;25972;51.854;4.534;2023-05-10T12:16:18;15.10;99.90
40253;DHT22;25972;51.854;4.534;2023-05-10T12:18:49;15.20;99.90
40253;DHT22;25972;51.854;4.534;2023-05-10T12:21:17;15.30;99.90
40253;DHT22;25972;51.854;4.534;2023-05-10T12:23:45;15.50;99.90
40253;DHT22;25972;51.854;4.534;2023-05-10T12:26:11;15.60;99.90
40253;DHT22;25972;51.854;4.534;2023-05-10T12:28:37;15.70;99.90
40253;DHT22;25972;51.854;4.534;2023-05-10T12:31:04;15.80;99.90
40253;DHT22;25972;51.854;4.534;2023-05-10T12:33:41;15.90;99.90
40253;DHT22;25972;51.854;4.534;2023-05-10T12:36:12;16.10;99.90
40253;DHT22;25972;51.854;4.534;2023-05-10T12:38:40;16.10;99.90
40253;DHT22;25972;51.854;4.534;2023-05-10T12:41:10;16.10;99.90
40253;DHT22;25972;51.854;4.534;2023-05-10T12:43:37;16.10;99.90
40253;DHT22;25972;51.854;4.534;2023-05-10T12:46:11;16.10;99.90
40253;DHT22;25972;51.854;4.534;2023-05-10T12:48:38;16.20;99.90
40253;DHT22;25972;51.854;4.534;2023-05-10T12:51:06;16.20;99.90
40253;DHT22;25972;51.854;4.534;2023-05-10T12:53:43;16.30;99.90
40253;DHT22;25972;51.854;4.534;2023-05-10T12:56:11;16.20;99.90
40253;DHT22;25972;51.854;4.534;2023-05-10T12:58:37;16.50;99.90
40253;DHT22;25972;51.854;4.534;2023-05-10T13:01:04;16.50;99.90
40253;DHT22;25972;51.854;4.534;2023-05-10T13:03:35;16.60;99.90
40253;DHT22;25972;51.854;4.534;2023-05-10T13:06:01;16.70;99.90
40253;DHT22;25972;51.854;4.534;2023-05-10T13:08:27;16.80;99.90
40253;DHT22;25972;51.854;4.534;2023-05-10T13:10:55;17.00;99.90
40253;DHT22;25972;51.854;4.534;2023-05-10T13:13:21;17.10;99.90
40253;DHT22;25972;51.854;4.534;2023-05-10T13:15:47;17.10;99.90
40253;DHT22;25972;51.854;4.534;2023-05-10T13:18:12;17.20;99.90
40253;DHT22;25972;51.854;4.534;2023-05-10T13:20:39;17.10;99.90
40253;DHT22;25972;51.854;4.534;2023-05-10T13:23:05;17.10;99.90
40253;DHT22;25972;51.854;4.534;2023-05-10T13:25:30;17.20;99.90
40253;DHT22;25972;51.854;4.534;2023-05-10T13:27:59;17.20;99.90
40253;DHT22;25972;51.854;4.534;2023-05-10T13:30:26;17.30;99.90
40253;DHT22;25972;51.854;4.534;2023-05-10T13:32:52;17.30;99.90
40253;DHT22;25972;51.854;4.534;2023-05-10T13:35:18;17.30;99.90
40253;DHT22;25972;51.854;4.534;2023-05-10T13:37:44;17.40;99.90
40253;DHT22;25972;51.854;4.534;2023-05-10T13:40:10;17.50;99.90
40253;DHT22;25972;51.854;4.534;2023-05-10T13:42:36;17.50;99.90
40253;DHT22;25972;51.854;4.534;2023-05-10T13:45:03;17.60;99.90
40253;DHT22;25972;51.854;4.534;2023-05-10T13:47:29;17.60;99.90
40253;DHT22;25972;51.854;4.534;2023-05-10T13:49:55;17.60;99.90
40253;DHT22;25972;51.854;4.534;2023-05-10T13:52:21;17.50;99.90
40253;DHT22;25972;51.854;4.534;2023-05-10T13:54:47;17.50;99.90
40253;DHT22;25972;51.854;4.534;2023-05-10T13:57:13;17.50;99.90
40253;DHT22;25972;51.854;4.534;2023-05-10T13:59:42;17.60;99.90
40253;DHT22;25972;51.854;4.534;2023-05-10T14:02:08;17.60;99.90
40253;DHT22;25972;51.854;4.534;2023-05-10T14:04:34;17.50;99.90
40253;DHT22;25972;51.854;4.534;2023-05-10T14:07:01;17.60;99.90
40253;DHT22;25972;51.854;4.534;2023-05-10T14:09:27;17.70;99.90
40253;DHT22;25972;51.854;4.534;2023-05-10T14:11:53;17.70;99.90
40253;DHT22;25972;51.854;4.534;2023-05-10T14:14:19;17.70;99.90
40253;DHT22;25972;51.854;4.534;2023-05-10T14:16:44;17.60;99.90
40253;DHT22;25972;51.854;4.534;2023-05-10T14:19:11;17.60;99.90
40253;DHT22;25972;51.854;4.534;2023-05-10T14:21:37;17.60;99.90
40253;DHT22;25972;51.854;4.534;2023-05-10T14:24:03;17.50;99.90
40253;DHT22;25972;51.854;4.534;2023-05-10T14:26:29;17.60;99.90
40253;DHT22;25972;51.854;4.534;2023-05-10T14:28:55;17.50;99.90
40253;DHT22;25972;51.854;4.534;2023-05-10T14:31:21;17.60;99.90
40253;DHT22;25972;51.854;4.534;2023-05-10T14:33:48;17.60;99.90
40253;DHT22;25972;51.854;4.534;2023-05-10T14:36:14;17.70;99.90
40253;DHT22;25972;51.854;4.534;2023-05-10T14:38:40;17.70;99.90
40253;DHT22;25972;51.854;4.534;2023-05-10T14:41:06;17.80;99.90
40253;DHT22;25972;51.854;4.534;2023-05-10T14:43:32;18.00;99.90
40253;DHT22;25972;51.854;4.534;2023-05-10T14:45:59;18.00;99.90
40253;DHT22;25972;51.854;4.534;2023-05-10T14:48:24;18.10;99.90
40253;DHT22;25972;51.854;4.534;2023-05-10T14:50:50;18.10;99.90
40253;DHT22;25972;51.854;4.534;2023-05-10T14:53:18;18.20;99.90
40253;DHT22;25972;51.854;4.534;2023-05-10T14:55:44;18.20;99.90
40253;DHT22;25972;51.854;4.534;2023-05-10T14:58:10;18.20;99.90
40253;DHT22;25972;51.854;4.534;2023-05-10T15:00:35;18.20;99.90
40253;DHT22;25972;51.854;4.534;2023-05-10T15:03:02;18.20;99.90
40253;DHT22;25972;51.854;4.534;2023-05-10T15:05:29;18.20;99.90
40253;DHT22;25972;51.854;4.534;2023-05-10T15:07:54;18.20;99.90
40253;DHT22;25972;51.854;4.534;2023-05-10T15:10:20;17.90;99.90
40253;DHT22;25972;51.854;4.534;2023-05-10T15:12:46;18.00;99.90
40253;DHT22;25972;51.854;4.534;2023-05-10T15:15:12;17.80;99.90
40253;DHT22;25972;51.854;4.534;2023-05-10T15:17:38;17.80;99.90
40253;DHT22;25972;51.854;4.534;2023-05-10T15:20:04;17.70;99.90
40253;DHT22;25972;51.854;4.534;2023-05-10T15:22:30;17.70;99.90
40253;DHT22;25972;51.854;4.534;2023-05-10T15:24:58;17.70;99.90
40253;DHT22;25972;51.854;4.534;2023-05-10T15:27:25;17.70;99.90
40253;DHT22;25972;51.854;4.534;2023-05-10T15:29:51;17.60;99.90
40253;DHT22;25972;51.854;4.534;2023-05-10T15:32:17;17.60;99.90
40253;DHT22;25972;51.854;4.534;2023-05-10T15:34:43;17.50;99.90
40253;DHT22;25972;51.854;4.534;2023-05-10T15:37:09;17.50;99.90
40253;DHT22;25972;51.854;4.534;2023-05-10T15:39:35;17.40;99.90
40253;DHT22;25972;51.854;4.534;2023-05-10T15:42:01;17.30;99.90
40253;DHT22;25972;51.854;4.534;2023-05-10T15:44:28;17.20;99.90
40253;DHT22;25972;51.854;4.534;2023-05-10T15:46:54;17.20;99.90
40253;DHT22;25972;51.854;4.534;2023-05-10T15:49:20;17.10;99.90
40253;DHT22;25972;51.854;4.534;2023-05-10T15:51:46;17.10;99.90
40253;DHT22;25972;51.854;4.534;2023-05-10T15:54:12;17.10;99.90
40253;DHT22;25972;51.854;4.534;2023-05-10T15:56:38;17.10;99.90
40253;DHT22;25972;51.854;4.534;2023-05-10T15:59:04;17.10;99.90
40253;DHT22;25972;51.854;4.534;2023-05-10T16:01:30;17.00;99.90
40253;DHT22;25972;51.854;4.534;2023-05-10T16:04:00;16.90;99.90
40253;DHT22;25972;51.854;4.534;2023-05-10T16:06:26;16.80;99.90
40253;DHT22;25972;51.854;4.534;2023-05-10T16:08:52;16.70;99.90
40253;DHT22;25972;51.854;4.534;2023-05-10T16:11:18;16.60;99.90
40253;DHT22;25972;51.854;4.534;2023-05-10T16:13:43;16.40;99.90
40253;DHT22;25972;51.854;4.534;2023-05-10T16:16:09;16.30;99.90